createdAt,value
2018-07-13T00:00:27.158Z,8.90
2018-07-13T00:02:56.210Z,10.87
2018-07-13T00:05:25.160Z,10.10
2018-07-13T00:07:54.367Z,11.27
2018-07-13T00:10:23.387Z,9.63
2018-07-13T00:12:52.363Z,9.60
2018-07-13T00:15:21.310Z,10.83
2018-07-13T00:17:50.255Z,10.43
2018-07-13T00:20:19.223Z,10.13
2018-07-13T00:22:48.054Z,11.27
2018-07-13T00:25:16.777Z,9.10
2018-07-13T00:27:45.612Z,10.77
2018-07-13T00:30:14.553Z,11.90
2018-07-13T00:32:43.492Z,13.17
2018-07-13T00:35:12.467Z,12.07
2018-07-13T00:37:41.431Z,11.73
2018-07-13T00:40:10.464Z,12.37
2018-07-13T00:42:39.423Z,11.67
2018-07-13T00:45:08.390Z,13.07
2018-07-13T00:47:37.339Z,13.60
2018-07-13T00:50:06.299Z,14.67
2018-07-13T00:52:35.239Z,12.17
2018-07-13T00:55:04.022Z,13.73
2018-07-13T00:57:32.863Z,13.50
2018-07-13T01:00:01.840Z,14.30
2018-07-13T01:02:30.800Z,12.00
2018-07-13T01:04:59.803Z,13.90
2018-07-13T01:07:28.813Z,15.87
2018-07-13T01:09:57.872Z,13.80
2018-07-13T01:12:26.823Z,14.80
2018-07-13T01:14:55.798Z,16.47
2018-07-13T01:17:25.682Z,14.50
2018-07-13T01:19:54.668Z,16.13
2018-07-13T01:22:23.647Z,15.20
2018-07-13T01:24:52.843Z,16.33
2018-07-13T01:27:21.795Z,18.90
2018-07-13T01:29:50.883Z,16.63
2018-07-13T01:32:19.849Z,17.80
2018-07-13T01:34:48.803Z,18.30
2018-07-13T01:37:17.747Z,17.57
2018-07-13T01:39:46.723Z,19.50
2018-07-13T01:42:15.722Z,18.57
2018-07-13T01:44:44.452Z,21.13
2018-07-13T01:47:13.344Z,20.13
2018-07-13T01:49:42.299Z,17.30
2018-07-13T01:52:11.243Z,22.23
2018-07-13T01:54:40.195Z,20.37
2018-07-13T01:57:09.173Z,20.43
2018-07-13T01:59:38.212Z,19.77
2018-07-13T02:02:07.162Z,23.50
2018-07-13T02:04:36.131Z,22.37
2018-07-13T02:07:05.090Z,23.30
2018-07-13T02:09:34.051Z,20.90
2018-07-13T02:12:03.013Z,21.40
2018-07-13T02:14:32.003Z,23.43
2018-07-13T02:17:00.963Z,21.37
2018-07-13T02:19:29.943Z,19.90
2018-07-13T02:21:58.901Z,18.53
2018-07-13T02:24:27.859Z,21.23
2018-07-13T02:26:56.811Z,20.90
2018-07-13T02:29:25.792Z,24.20
2018-07-13T02:31:54.766Z,23.93
2018-07-13T02:34:23.760Z,24.73
2018-07-13T02:36:52.726Z,25.77
2018-07-13T02:39:21.699Z,25.23
2018-07-13T02:41:50.686Z,24.53
2018-07-13T02:44:19.647Z,26.63
2018-07-13T02:46:48.640Z,28.77
2018-07-13T02:49:17.607Z,28.37
2018-07-13T02:51:46.562Z,29.67
2018-07-13T02:54:15.534Z,29.03
2018-07-13T02:56:44.518Z,26.93
2018-07-13T02:59:13.487Z,31.77
2018-07-13T03:01:42.443Z,30.20
2018-07-13T03:04:11.399Z,31.80
2018-07-13T03:06:40.347Z,28.20
2018-07-13T03:09:11.088Z,29.83
2018-07-13T03:11:40.149Z,28.37
2018-07-13T03:14:09.145Z,30.00
2018-07-13T03:16:38.868Z,28.20
2018-07-13T03:19:08.110Z,33.63
2018-07-13T03:21:36.956Z,28.10
2018-07-13T03:24:06.143Z,30.60
2018-07-13T03:26:35.100Z,30.67
2018-07-13T03:29:04.076Z,29.27
2018-07-13T03:31:32.838Z,29.40
2018-07-13T03:34:01.659Z,30.47
2018-07-13T03:36:30.622Z,31.20
2018-07-13T03:38:59.654Z,33.07
2018-07-13T03:41:28.584Z,32.43
2018-07-13T03:43:57.590Z,32.80
2018-07-13T03:46:26.527Z,34.90
2018-07-13T03:48:55.471Z,34.00
2018-07-13T03:51:24.455Z,34.57
2018-07-13T03:53:53.415Z,32.90
2018-07-13T03:56:22.391Z,33.23
2018-07-13T03:58:51.385Z,32.27
2018-07-13T04:01:20.343Z,34.70
2018-07-13T04:03:49.090Z,32.57
2018-07-13T04:06:17.931Z,33.27
2018-07-13T04:08:46.879Z,34.30
2018-07-13T04:11:15.823Z,33.60
2018-07-13T04:13:44.790Z,33.57
2018-07-13T04:16:13.734Z,36.00
2018-07-13T04:18:42.681Z,36.50
2018-07-13T04:21:11.631Z,32.30
2018-07-13T04:23:40.595Z,32.07
2018-07-13T04:26:09.611Z,32.37
2018-07-13T04:28:38.575Z,35.60
2018-07-13T04:31:07.615Z,34.40
2018-07-13T04:33:36.563Z,36.60
2018-07-13T04:36:05.572Z,33.10
2018-07-13T04:38:34.504Z,34.87
2018-07-13T04:41:03.563Z,38.00
2018-07-13T04:43:32.483Z,37.00
2018-07-13T04:46:01.487Z,38.30
2018-07-13T04:48:30.445Z,38.80
2018-07-13T04:50:59.412Z,40.97
2018-07-13T04:53:28.363Z,39.40
2018-07-13T04:55:57.421Z,37.37
2018-07-13T04:58:26.397Z,40.17
2018-07-13T05:00:55.378Z,40.40
2018-07-13T05:03:24.386Z,38.93
2018-07-13T05:05:53.391Z,46.40
2018-07-13T05:08:22.360Z,42.00
2018-07-13T05:10:51.339Z,42.77
2018-07-13T05:13:20.270Z,43.03
2018-07-13T05:15:49.340Z,42.27
2018-07-13T05:18:18.395Z,42.53
2018-07-13T05:20:47.355Z,42.80
2018-07-13T05:23:16.379Z,42.30
2018-07-13T05:25:45.479Z,43.10
2018-07-13T05:28:14.758Z,37.73
2018-07-13T05:30:44.060Z,38.00
2018-07-13T05:33:12.992Z,37.57
2018-07-13T05:35:41.988Z,35.00
2018-07-13T05:38:10.959Z,38.20
2018-07-13T05:40:40.103Z,38.97
2018-07-13T05:43:09.079Z,37.80
2018-07-13T05:45:38.077Z,39.00
2018-07-13T05:48:07.035Z,39.40
2018-07-13T05:50:35.778Z,38.87
2018-07-13T05:53:04.623Z,44.67
2018-07-13T05:55:33.640Z,37.07
2018-07-13T05:58:02.599Z,34.47
2018-07-13T06:00:31.567Z,32.13
2018-07-13T06:03:00.493Z,32.23
2018-07-13T06:05:29.451Z,34.93
2018-07-13T06:07:58.523Z,34.97
2018-07-13T06:10:27.558Z,35.63
2018-07-13T06:12:56.602Z,31.27
2018-07-13T06:15:25.642Z,30.97
2018-07-13T06:17:54.633Z,31.40
2018-07-13T06:20:23.594Z,29.67
2018-07-13T06:22:52.611Z,35.60
2018-07-13T06:25:21.574Z,36.00
2018-07-13T06:27:50.539Z,29.40
2018-07-13T06:30:19.732Z,27.00
2018-07-13T06:32:48.600Z,25.00
2018-07-13T06:35:17.318Z,25.40
2018-07-13T06:37:45.950Z,29.80
2018-07-13T06:40:14.964Z,36.10
2018-07-13T06:42:43.915Z,45.60
2018-07-13T06:45:12.883Z,34.33
2018-07-13T06:47:41.837Z,35.37
2018-07-13T06:50:10.823Z,38.17
2018-07-13T06:52:39.763Z,37.43
2018-07-13T06:55:08.719Z,43.10
2018-07-13T06:57:49.088Z,46.03
2018-07-13T07:01:10.263Z,42.00
2018-07-13T07:07:58.704Z,44.90
2018-07-13T07:10:27.647Z,49.00
2018-07-13T07:13:32.583Z,46.93
2018-07-13T07:16:01.883Z,46.50
2018-07-13T07:18:30.982Z,46.30
2018-07-13T07:21:00.097Z,43.93
2018-07-13T07:23:29.699Z,41.53
2018-07-13T07:25:59.775Z,45.67
2018-07-13T07:28:28.730Z,45.30
2018-07-13T07:30:58.416Z,42.60
2018-07-13T07:33:27.389Z,40.17
2018-07-13T07:35:56.346Z,43.07
2018-07-13T07:38:25.584Z,40.30
2018-07-13T07:40:54.468Z,47.77
2018-07-13T07:43:23.430Z,50.70
2018-07-13T07:45:52.383Z,54.90
2018-07-13T07:48:21.322Z,53.67
2018-07-13T07:50:50.305Z,52.60
2018-07-13T07:53:19.265Z,55.83
2018-07-13T07:55:48.223Z,54.33
2018-07-13T07:58:17.181Z,55.33
2018-07-13T08:00:46.276Z,55.27
2018-07-13T08:03:15.205Z,54.13
2018-07-13T08:05:44.258Z,54.90
2018-07-13T08:08:13.220Z,56.13
2018-07-13T08:10:42.182Z,57.00
2018-07-13T08:13:11.000Z,59.30
2018-07-13T08:15:39.835Z,54.37
2018-07-13T08:18:08.817Z,55.87
2018-07-13T08:20:42.416Z,56.07
2018-07-13T08:23:11.371Z,53.40
2018-07-13T08:25:42.138Z,51.37
2018-07-13T08:28:11.259Z,50.87
2018-07-13T08:30:46.308Z,48.80
2018-07-13T08:33:15.263Z,47.57
2018-07-13T08:35:44.202Z,42.97
2018-07-13T08:38:13.170Z,44.93
2018-07-13T08:40:42.129Z,46.53
2018-07-13T08:43:11.055Z,42.10
2018-07-13T08:45:40.116Z,40.77
2018-07-13T08:48:08.991Z,41.97
2018-07-13T08:50:37.934Z,43.60
2018-07-13T08:53:06.891Z,41.27
2018-07-13T08:55:35.964Z,42.93
2018-07-13T08:58:04.929Z,41.93
2018-07-13T09:00:33.887Z,38.73
2018-07-13T09:03:02.851Z,42.53
2018-07-13T09:05:31.848Z,40.30
2018-07-13T09:08:00.775Z,37.20
2018-07-13T09:10:29.738Z,38.20
2018-07-13T09:12:58.684Z,40.47
2018-07-13T09:15:27.619Z,37.40
2018-07-13T09:17:56.571Z,39.97
2018-07-13T09:20:25.531Z,40.17
2018-07-13T09:22:54.573Z,36.23
2018-07-13T09:25:23.652Z,31.97
2018-07-13T09:27:52.583Z,34.87
2018-07-13T09:30:21.544Z,35.20
2018-07-13T09:32:50.499Z,33.17
2018-07-13T09:35:19.487Z,33.53
2018-07-13T09:37:48.475Z,35.87
2018-07-13T09:40:17.441Z,35.70
2018-07-13T09:42:46.395Z,34.70
2018-07-13T09:45:15.378Z,37.17
2018-07-13T09:47:44.397Z,39.17
2018-07-13T09:50:13.349Z,43.20
2018-07-13T09:52:42.309Z,33.70
2018-07-13T09:55:11.279Z,33.60
2018-07-13T09:57:40.235Z,30.57
2018-07-13T10:00:10.803Z,29.00
2018-07-13T10:02:39.826Z,29.73
2018-07-13T10:05:08.891Z,29.40
2018-07-13T10:07:37.887Z,30.43
2018-07-13T10:10:08.936Z,30.17
2018-07-13T10:12:37.895Z,31.93
2018-07-13T10:15:06.877Z,29.60
2018-07-13T10:17:35.821Z,30.37
2018-07-13T10:20:04.803Z,29.17
2018-07-13T10:22:34.083Z,29.93
2018-07-13T10:25:03.222Z,30.57
2018-07-13T10:27:34.805Z,34.97
2018-07-13T10:30:05.079Z,33.37
2018-07-13T10:32:34.259Z,33.90
2018-07-13T10:35:05.146Z,36.10
2018-07-13T10:37:34.334Z,34.43
2018-07-13T10:40:03.348Z,35.13
2018-07-13T10:42:32.304Z,40.43
2018-07-13T10:45:01.329Z,36.13
2018-07-13T10:47:30.272Z,36.37
2018-07-13T10:49:59.215Z,34.33
2018-07-13T10:52:28.214Z,37.00
2018-07-13T10:54:57.148Z,33.30
2018-07-13T10:57:26.144Z,31.53
2018-07-13T10:59:55.099Z,31.70
2018-07-13T11:02:24.041Z,34.70
2018-07-13T11:04:53.122Z,31.17
2018-07-13T11:07:22.059Z,32.57
2018-07-13T11:09:51.809Z,34.83
2018-07-13T11:12:20.773Z,35.67
2018-07-13T11:14:49.722Z,35.07
2018-07-13T11:17:18.687Z,33.90
2018-07-13T11:19:47.635Z,32.27
2018-07-13T11:22:16.576Z,32.30
2018-07-13T11:24:45.529Z,33.37
2018-07-13T11:27:14.502Z,31.17
2018-07-13T11:29:43.488Z,30.43
2018-07-13T11:32:12.656Z,34.30
2018-07-13T11:34:41.613Z,32.27
2018-07-13T11:37:10.838Z,30.00
2018-07-13T11:39:39.524Z,29.80
2018-07-13T11:42:08.480Z,29.30
2018-07-13T11:44:37.448Z,31.20
2018-07-13T11:47:06.404Z,29.57
2018-07-13T11:49:35.871Z,30.20
2018-07-13T11:52:04.878Z,27.13
2018-07-13T11:54:33.858Z,27.00
2018-07-13T11:57:02.856Z,28.37
2018-07-13T11:59:31.809Z,25.30
2018-07-13T12:02:00.800Z,25.40
2018-07-13T12:04:29.755Z,25.67
2018-07-13T12:06:58.697Z,26.10
2018-07-13T12:09:27.646Z,29.10
2018-07-13T12:11:56.649Z,27.93
2018-07-13T12:14:25.648Z,29.50
2018-07-13T12:16:54.591Z,26.33
2018-07-13T12:19:23.554Z,23.60
2018-07-13T12:21:52.516Z,25.37
2018-07-13T12:24:21.496Z,23.63
2018-07-13T12:26:50.572Z,22.17
2018-07-13T12:29:19.527Z,20.40
2018-07-13T12:31:48.445Z,23.20
2018-07-13T12:34:17.362Z,22.47
2018-07-13T12:36:46.296Z,22.37
2018-07-13T12:39:15.307Z,21.53
2018-07-13T12:41:44.267Z,20.20
2018-07-13T12:44:13.271Z,20.70
2018-07-13T12:46:43.851Z,21.00
2018-07-13T12:49:13.529Z,22.80
2018-07-13T12:51:42.599Z,23.40
2018-07-13T12:54:11.666Z,21.90
2018-07-13T12:56:40.548Z,20.20
2018-07-13T12:59:09.587Z,17.17
2018-07-13T13:01:38.554Z,18.70
2018-07-13T13:04:07.562Z,19.70
2018-07-13T13:06:36.500Z,18.10
2018-07-13T13:09:05.638Z,16.20
2018-07-13T13:11:34.595Z,17.23
2018-07-13T13:14:03.765Z,17.13
2018-07-13T13:16:32.740Z,17.17
2018-07-13T13:19:01.748Z,14.37
2018-07-13T13:21:30.808Z,14.40
2018-07-13T13:23:59.672Z,14.00
2018-07-13T13:26:28.727Z,14.60
2018-07-13T13:28:57.665Z,13.53
2018-07-13T13:31:26.695Z,15.17
2018-07-13T13:33:55.659Z,14.57
2018-07-13T13:36:24.640Z,16.73
2018-07-13T13:38:53.601Z,12.00
2018-07-13T13:41:22.597Z,14.17
2018-07-13T13:43:51.539Z,15.30
2018-07-13T13:46:20.496Z,12.60
2018-07-13T13:48:49.454Z,13.57
2018-07-13T13:51:18.421Z,13.23
2018-07-13T13:53:47.398Z,12.07
2018-07-13T13:56:16.323Z,13.00
2018-07-13T13:58:45.333Z,13.83
2018-07-13T14:01:14.292Z,16.30
2018-07-13T14:03:43.316Z,15.33
2018-07-13T14:06:12.268Z,13.43
2018-07-13T14:08:41.244Z,15.30
2018-07-13T14:11:10.192Z,12.63
2018-07-13T14:13:39.199Z,14.90
2018-07-13T14:16:08.148Z,12.13
2018-07-13T14:18:37.121Z,13.17
2018-07-13T14:21:06.448Z,15.07
2018-07-13T14:23:35.510Z,17.07
2018-07-13T14:26:04.484Z,13.30
2018-07-13T14:28:33.460Z,14.37
2018-07-13T14:31:02.423Z,12.57
2018-07-13T14:33:31.408Z,15.37
2018-07-13T14:36:00.385Z,15.07
2018-07-13T14:38:29.344Z,14.20
2018-07-13T14:40:58.292Z,14.20
2018-07-13T14:43:27.246Z,13.40
2018-07-13T14:45:56.215Z,12.20
2018-07-13T14:48:25.173Z,13.10
2018-07-13T14:50:54.136Z,18.10
2018-07-13T14:53:23.107Z,15.63
2018-07-13T14:55:52.311Z,12.33
2018-07-13T14:58:21.276Z,12.47
2018-07-13T15:00:50.264Z,14.23
2018-07-13T15:03:19.220Z,11.90
2018-07-13T15:05:48.290Z,12.80
2018-07-13T15:08:17.216Z,11.50
2018-07-13T15:10:46.181Z,14.50
2018-07-13T15:13:15.327Z,10.53
2018-07-13T15:15:44.309Z,10.30
2018-07-13T15:18:14.164Z,12.07
2018-07-13T15:20:43.135Z,13.03
2018-07-13T15:23:12.135Z,13.67
2018-07-13T15:25:41.502Z,12.50
2018-07-13T15:28:10.513Z,10.93
2018-07-13T15:30:39.558Z,12.80
2018-07-13T15:33:08.505Z,11.20
2018-07-13T15:35:37.499Z,11.37
2018-07-13T15:38:06.503Z,12.40
2018-07-13T15:40:35.459Z,12.67
2018-07-13T15:43:04.423Z,11.43
2018-07-13T15:45:33.366Z,9.70
2018-07-13T15:48:02.302Z,11.43
2018-07-13T15:50:31.300Z,12.57
2018-07-13T15:53:00.287Z,12.20
2018-07-13T15:55:34.874Z,12.87
2018-07-13T15:58:03.991Z,13.23
2018-07-13T16:00:32.975Z,12.53
2018-07-13T16:03:01.935Z,10.80
2018-07-13T16:05:30.914Z,11.50
2018-07-13T16:07:59.709Z,11.77
2018-07-13T16:10:28.572Z,14.93
2018-07-13T16:12:57.534Z,14.03
2018-07-13T16:15:26.507Z,13.57
2018-07-13T16:17:55.455Z,14.27
2018-07-13T16:20:24.320Z,11.10
2018-07-13T16:22:53.159Z,14.40
2018-07-13T16:25:22.166Z,10.63
2018-07-13T16:27:51.189Z,14.70
2018-07-13T16:30:20.198Z,13.20
2018-07-13T16:32:49.159Z,18.53
2018-07-13T16:35:18.119Z,14.07
2018-07-13T16:37:47.078Z,14.83
2018-07-13T16:40:16.185Z,18.80
2018-07-13T16:42:45.205Z,16.93
2018-07-13T16:45:14.259Z,16.43
2018-07-13T16:47:43.140Z,16.07
2018-07-13T16:50:12.119Z,24.03
2018-07-13T16:52:41.081Z,20.50
2018-07-13T16:55:10.039Z,22.47
2018-07-13T16:57:38.819Z,19.53
2018-07-13T17:00:07.683Z,16.63
2018-07-13T17:02:36.502Z,20.50
2018-07-13T17:05:06.032Z,18.13
2018-07-13T17:07:35.045Z,18.33
2018-07-13T17:10:04.032Z,19.93
2018-07-13T17:12:33.022Z,17.40
2018-07-13T17:15:02.033Z,22.10
2018-07-13T17:17:31.013Z,22.90
2018-07-13T17:19:59.969Z,26.63
2018-07-13T17:22:29.025Z,24.67
2018-07-13T17:24:58.137Z,19.77
2018-07-13T17:27:27.171Z,20.70
2018-07-13T17:29:56.199Z,19.17
2018-07-13T17:32:25.163Z,22.00
2018-07-13T17:34:54.137Z,22.07
2018-07-13T17:37:23.071Z,20.10
2018-07-13T17:39:52.055Z,20.80
2018-07-13T17:42:21.007Z,18.07
2018-07-13T17:44:50.009Z,19.40
2018-07-13T17:47:18.984Z,23.30
2018-07-13T17:49:50.223Z,18.07
2018-07-13T17:52:19.318Z,18.30
2018-07-13T17:54:48.324Z,19.27
2018-07-13T17:57:17.094Z,18.20
2018-07-13T17:59:45.928Z,13.23
2018-07-13T18:02:14.922Z,15.93
2018-07-13T18:04:43.912Z,14.83
2018-07-13T18:07:12.879Z,14.17
2018-07-13T18:09:41.827Z,18.67
2018-07-13T18:12:10.813Z,13.60
2018-07-13T18:14:39.775Z,11.90
2018-07-13T18:17:08.799Z,12.30
2018-07-13T18:19:37.827Z,11.47
2018-07-13T18:22:06.846Z,13.70
2018-07-13T18:24:35.823Z,11.40
2018-07-13T18:27:04.791Z,11.00
2018-07-13T18:29:33.811Z,10.47
2018-07-13T18:32:02.762Z,9.77
2018-07-13T18:34:31.784Z,9.10
2018-07-13T18:37:00.732Z,11.27
2018-07-13T18:39:29.716Z,10.60
2018-07-13T18:41:58.659Z,10.50
2018-07-13T18:44:27.749Z,9.23
2018-07-13T18:46:56.631Z,10.93
2018-07-13T18:49:25.647Z,8.40
2018-07-13T18:51:54.592Z,8.60
2018-07-13T18:54:23.594Z,11.47
2018-07-13T18:56:52.582Z,11.70
2018-07-13T18:59:21.633Z,9.67
2018-07-13T19:01:50.619Z,10.17
2018-07-13T19:04:19.566Z,9.33
2018-07-13T19:06:48.650Z,9.50
2018-07-13T19:09:17.648Z,7.40
2018-07-13T19:11:46.592Z,8.83
2018-07-13T19:14:15.543Z,9.83
2018-07-13T19:16:44.507Z,9.03
2018-07-13T19:19:13.464Z,11.33
2018-07-13T19:21:42.445Z,12.53
2018-07-13T19:24:11.429Z,10.37
2018-07-13T19:26:40.396Z,9.80
2018-07-13T19:29:09.349Z,9.97
2018-07-13T19:31:38.511Z,12.20
2018-07-13T19:34:07.476Z,11.53
2018-07-13T19:36:36.440Z,9.30
2018-07-13T19:39:06.447Z,9.90
2018-07-13T19:41:35.410Z,12.40
2018-07-13T19:44:04.130Z,9.73
2018-07-13T19:46:33.161Z,10.07
2018-07-13T19:49:02.121Z,10.40
2018-07-13T19:51:31.112Z,9.80
2018-07-13T19:54:00.016Z,11.60
2018-07-13T19:56:28.991Z,10.87
2018-07-13T19:58:57.942Z,10.93
2018-07-13T20:01:26.911Z,9.63
2018-07-13T20:03:55.855Z,11.50
2018-07-13T20:06:24.839Z,11.43
2018-07-13T20:08:53.813Z,11.50
2018-07-13T20:11:22.775Z,10.67
2018-07-13T20:13:51.780Z,11.17
2018-07-13T20:16:20.999Z,11.70
2018-07-13T20:18:49.957Z,11.23
2018-07-13T20:21:18.943Z,9.93
2018-07-13T20:23:47.957Z,8.90
2018-07-13T20:26:16.902Z,13.40
2018-07-13T20:28:45.910Z,9.17
2018-07-13T20:31:14.863Z,9.40
2018-07-13T20:33:43.836Z,9.97
2018-07-13T20:36:12.788Z,9.47
2018-07-13T20:38:41.744Z,9.43
2018-07-13T20:41:10.736Z,12.77
2018-07-13T20:43:39.961Z,8.90
2018-07-13T20:46:08.925Z,13.07
2018-07-13T20:48:38.079Z,10.67
2018-07-13T20:51:07.240Z,11.27
2018-07-13T20:53:36.216Z,11.27
2018-07-13T20:56:05.244Z,11.63
2018-07-13T20:58:34.227Z,10.97
2018-07-13T21:01:03.233Z,11.57
2018-07-13T21:03:32.244Z,12.10
2018-07-13T21:06:01.245Z,9.73
2018-07-13T21:08:30.228Z,10.30
2018-07-13T21:10:59.196Z,11.77
2018-07-13T21:13:28.180Z,11.23
2018-07-13T21:15:57.132Z,11.43
2018-07-13T21:18:26.120Z,10.00
2018-07-13T21:20:55.134Z,13.03
2018-07-13T21:23:24.084Z,12.37
2018-07-13T21:25:53.121Z,11.20
2018-07-13T21:28:22.098Z,11.67
2018-07-13T21:30:51.060Z,11.50
2018-07-13T21:33:20.015Z,11.80
2018-07-13T21:35:48.999Z,12.57
2018-07-13T21:38:17.955Z,12.13
2018-07-13T21:40:46.919Z,12.00
2018-07-13T21:43:15.922Z,11.30
2018-07-13T21:45:44.851Z,15.70
2018-07-13T21:48:13.821Z,11.40
2018-07-13T21:50:42.873Z,11.87
2018-07-13T21:53:11.815Z,13.63
2018-07-13T21:55:40.814Z,13.20
2018-07-13T21:58:09.827Z,12.97
2018-07-13T22:00:38.775Z,12.97
2018-07-13T22:03:07.727Z,12.50
2018-07-13T22:05:36.933Z,13.73
2018-07-13T22:08:05.940Z,13.83
2018-07-13T22:10:34.903Z,12.90
2018-07-13T22:13:03.867Z,13.80
2018-07-13T22:15:32.828Z,13.73
2018-07-13T22:18:01.791Z,14.07
2018-07-13T22:20:30.720Z,15.10
2018-07-13T22:22:59.675Z,14.10
2018-07-13T22:34:07.783Z,14.27
2018-07-13T22:36:37.326Z,13.83
2018-07-13T22:39:07.468Z,15.40
2018-07-13T22:41:37.085Z,14.33
2018-07-13T22:44:07.598Z,13.50
2018-07-13T22:46:37.649Z,13.70
2018-07-13T22:49:07.990Z,14.23
2018-07-13T22:51:37.590Z,12.33
2018-07-13T22:54:07.722Z,15.47
2018-07-13T22:56:37.325Z,13.30
2018-07-13T22:59:07.510Z,12.50
2018-07-13T23:01:37.021Z,13.90
2018-07-13T23:04:06.979Z,14.67
2018-07-13T23:06:36.111Z,15.90
2018-07-13T23:09:06.135Z,12.47
2018-07-13T23:11:35.109Z,13.50
2018-07-13T23:14:04.061Z,13.80
2018-07-13T23:16:33.042Z,13.70
2018-07-13T23:19:02.020Z,13.77
2018-07-13T23:21:31.103Z,15.00
2018-07-13T23:24:00.191Z,13.73
2018-07-13T23:26:29.107Z,11.80
2018-07-13T23:28:58.067Z,14.40
2018-07-13T23:31:27.018Z,14.50
2018-07-13T23:33:56.004Z,14.87
2018-07-13T23:36:24.938Z,16.00
2018-07-13T23:38:53.667Z,15.50
2018-07-13T23:41:22.627Z,18.40
2018-07-13T23:43:51.619Z,14.67
2018-07-13T23:46:21.559Z,15.60
2018-07-13T23:48:50.547Z,17.37
2018-07-13T23:51:19.547Z,13.07
2018-07-13T23:53:48.512Z,16.40
2018-07-13T23:56:17.458Z,13.73
2018-07-13T23:58:46.517Z,16.60
